Time;durP1;ratioP1;P1;durP2;ratioP2;P2;SDS_P1;SDS_P2;PMS_P1;PMS_P2;Temp;Humidity;BMP_temperature;BMP_pressure;BME280_temperature;BME280_humidity;BME280_pressure;Samples;Min_cycle;Max_cycle;Signal;HPM_P1;HPM_P2
2022/04/30 00:00:47;;;;;;;2.13;1.70;;;14.10;99.90;;;;;;5075196;28;20454;-54
2022/04/30 00:03:14;;;;;;;1.67;1.30;;;14.00;99.90;;;;;;5075644;28;20552;-53
2022/04/30 00:05:42;;;;;;;2.50;2.30;;;14.10;99.90;;;;;;5076663;28;20446;-56
2022/04/30 00:08:09;;;;;;;2.33;1.70;;;14.00;99.90;;;;;;5076861;28;20785;-54
2022/04/30 00:10:38;;;;;;;2.37;1.70;;;14.00;99.90;;;;;;5076532;28;20881;-52
2022/04/30 00:13:07;;;;;;;2.80;1.93;;;14.10;99.90;;;;;;5076245;28;20454;-56
2022/04/30 00:15:34;;;;;;;3.30;2.17;;;14.00;99.90;;;;;;5076147;28;20447;-52
2022/04/30 00:18:02;;;;;;;2.27;1.70;;;14.00;99.90;;;;;;5075830;28;20481;-55
2022/04/30 00:20:29;;;;;;;2.10;1.40;;;14.00;99.90;;;;;;5076464;28;20453;-49
2022/04/30 00:22:57;;;;;;;1.60;1.13;;;14.00;99.90;;;;;;5075865;28;20512;-53
2022/04/30 00:25:24;;;;;;;2.13;1.37;;;13.90;72.80;;;;;;5075643;28;20718;-55
2022/04/30 00:27:51;;;;;;;1.63;1.33;;;13.90;99.90;;;;;;5075233;28;20466;-51
2022/04/30 00:30:18;;;;;;;2.87;1.70;;;14.00;50.50;;;;;;5073936;28;20450;-54
2022/04/30 00:32:45;;;;;;;2.97;2.13;;;14.00;1.00;;;;;;5074619;28;20449;-56
2022/04/30 00:35:13;;;;;;;1.97;1.60;;;14.00;1.00;;;;;;5073837;28;20434;-54
2022/04/30 00:37:40;;;;;;;2.77;1.90;;;14.00;1.00;;;;;;5073586;28;20454;-56
2022/04/30 00:40:09;;;;;;;2.43;1.83;;;14.00;1.00;;;;;;5074043;28;20474;-56
2022/04/30 00:42:36;;;;;;;3.07;1.87;;;14.10;1.00;;;;;;5088391;28;21052;-57
2022/04/30 00:45:04;;;;;;;1.70;1.53;;;14.00;1.00;;;;;;5094336;28;20442;-56
2022/04/30 00:47:31;;;;;;;2.47;1.73;;;14.10;1.00;;;;;;5082564;28;20450;-56
2022/04/30 00:49:58;;;;;;;3.50;1.63;;;14.10;1.00;;;;;;5074510;28;20492;-53
2022/04/30 00:52:26;;;;;;;1.73;1.47;;;14.10;1.00;;;;;;5074893;28;20560;-56
2022/04/30 00:54:59;;;;;;;2.90;1.97;;;14.10;1.00;;;;;;5074728;28;20446;-54
2022/04/30 00:57:31;;;;;;;2.77;1.70;;;14.10;1.00;;;;;;5082836;28;20500;-56
2022/04/30 01:00:00;;;;;;;2.60;1.53;;;14.10;1.00;;;;;;5094959;28;20441;-52
2022/04/30 01:02:29;;;;;;;4.67;2.53;;;14.10;1.00;;;;;;5095210;28;20454;-53
2022/04/30 01:04:57;;;;;;;3.30;2.37;;;14.00;1.00;;;;;;5089157;28;20450;-55
2022/04/30 01:07:24;;;;;;;3.67;2.03;;;13.90;89.40;;;;;;5075847;28;20469;-52
2022/04/30 01:09:52;;;;;;;3.33;2.17;;;13.90;99.90;;;;;;5076042;28;20483;-49
2022/04/30 01:12:19;;;;;;;5.53;2.07;;;13.80;99.90;;;;;;5079375;28;20822;-49
2022/04/30 01:14:49;;;;;;;3.73;2.30;;;13.70;99.90;;;;;;5079129;28;20446;-51
2022/04/30 01:17:16;;;;;;;7.37;4.03;;;13.70;1.00;;;;;;5079950;28;20488;-52
2022/04/30 01:19:43;;;;;;;4.60;3.90;;;13.60;1.00;;;;;;5080174;28;20448;-55
2022/04/30 01:22:15;;;;;;;6.20;3.10;;;13.60;3.30;;;;;;5078831;28;20503;-52
2022/04/30 01:24:44;;;;;;;5.73;3.40;;;13.50;99.90;;;;;;5078776;28;20447;-55
2022/04/30 01:27:11;;;;;;;6.37;4.33;;;13.50;99.90;;;;;;5079320;28;20454;-56
2022/04/30 01:29:38;;;;;;;4.80;3.60;;;13.40;1.00;;;;;;5079652;28;20482;-54
2022/04/30 01:37:37;;;;;;;7.53;4.23;;;13.30;99.90;;;;;;5079535;28;20743;-56
2022/04/30 01:40:06;;;;;;;9.37;3.73;;;13.30;99.90;;;;;;5079018;28;20454;-54
2022/04/30 01:42:36;;;;;;;6.33;3.53;;;13.30;1.00;;;;;;5086477;28;20560;-54
2022/04/30 01:45:05;;;;;;;5.90;4.23;;;13.30;99.90;;;;;;5100059;28;20496;-56
2022/04/30 01:47:34;;;;;;;4.13;3.70;;;13.30;99.90;;;;;;5099385;28;20445;-50
2022/04/30 01:50:02;;;;;;;6.20;3.60;;;13.20;1.00;;;;;;5095079;28;20481;-54
2022/04/30 01:52:29;;;;;;;5.83;4.33;;;13.30;1.00;;;;;;5078937;28;20486;-54
2022/04/30 01:54:56;;;;;;;10.13;4.70;;;13.20;92.50;;;;;;5079289;28;20562;-54
2022/04/30 01:57:26;;;;;;;6.27;3.50;;;13.20;99.90;;;;;;5078534;28;20446;-53
2022/04/30 01:59:53;;;;;;;10.83;5.40;;;13.10;99.90;;;;;;5078708;28;20442;-55
2022/04/30 02:05:03;;;;;;;10.50;6.67;;;13.00;99.90;;;;;;5077027;28;20438;-52
2022/04/30 02:07:34;;;;;;;9.80;5.53;;;12.80;1.00;;;;;;5079201;28;20458;-57
2022/04/30 02:10:02;;;;;;;9.90;4.13;;;13.00;1.00;;;;;;5079217;28;20474;-49
2022/04/30 02:12:34;;;;;;;10.60;4.20;;;13.10;1.00;;;;;;5079027;28;20885;-54
2022/04/30 02:15:05;;;;;;;10.50;5.10;;;13.00;1.00;;;;;;5078687;28;20541;-53
2022/04/30 02:17:36;;;;;;;8.73;5.47;;;13.00;1.00;;;;;;5077902;28;20963;-55
2022/04/30 02:20:26;;;;;;;9.37;5.00;;;13.10;1.00;;;;;;5092356;28;20503;-53
2022/04/30 02:22:56;;;;;;;11.77;4.13;;;13.00;1.00;;;;;;5098098;28;20458;-55
2022/04/30 02:25:23;;;;;;;8.23;4.27;;;13.00;1.00;;;;;;5098295;28;20446;-52
2022/04/30 02:27:52;;;;;;;8.30;4.93;;;13.00;1.00;;;;;;5087448;28;20776;-56
2022/04/30 02:30:22;;;;;;;6.50;3.87;;;13.00;1.00;;;;;;5098990;28;20770;-54
2022/04/30 02:32:53;;;;;;;5.10;3.37;;;13.00;1.00;;;;;;5098682;28;20909;-55
2022/04/30 02:35:22;;;;;;;7.10;3.30;;;13.00;1.00;;;;;;5097127;28;20446;-56
2022/04/30 02:37:50;;;;;;;5.10;3.40;;;13.00;1.00;;;;;;5078418;28;20461;-56
2022/04/30 02:40:18;;;;;;;4.93;2.93;;;13.00;1.00;;;;;;5078383;28;20449;-53
2022/04/30 02:42:46;;;;;;;5.33;3.80;;;13.00;1.00;;;;;;5078761;28;20748;-50
2022/04/30 02:45:15;;;;;;;4.73;3.93;;;12.90;1.00;;;;;;5077916;28;20446;-55
2022/04/30 02:47:43;;;;;;;5.50;3.43;;;12.80;1.00;;;;;;5078220;28;20548;-53
2022/04/30 02:50:12;;;;;;;4.43;3.90;;;12.90;1.00;;;;;;5077534;28;20581;-53
2022/04/30 02:52:41;;;;;;;7.80;4.20;;;12.80;1.00;;;;;;5078129;28;20462;-56
2022/04/30 02:55:09;;;;;;;4.77;3.47;;;12.90;1.00;;;;;;5078403;28;20450;-52
2022/04/30 02:59:53;;;;;;;8.00;3.40;;;12.70;1.00;;;;;;5078278;28;20450;-54
2022/04/30 03:00:28;;;;;;;4.37;2.90;;;12.70;1.00;;;;;;5078586;28;20854;-52
2022/04/30 03:02:55;;;;;;;6.77;4.17;;;12.70;1.00;;;;;;5077905;28;20459;-51
2022/04/30 03:05:22;;;;;;;8.50;3.67;;;12.70;1.00;;;;;;5078015;28;20450;-53
2022/04/30 03:07:49;;;;;;;5.80;4.50;;;12.70;1.00;;;;;;5077449;28;20459;-53
2022/04/30 03:10:16;;;;;;;6.90;4.33;;;12.70;1.00;;;;;;5077740;28;21008;-54
2022/04/30 03:12:43;;;;;;;6.30;3.90;;;12.70;1.00;;;;;;5077376;28;20454;-52
2022/04/30 03:15:11;;;;;;;8.63;3.90;;;12.60;1.00;;;;;;5078084;28;20447;-56
2022/04/30 03:23:22;;;;;;;8.47;4.13;;;12.60;1.00;;;;;;5028743;28;20510;-53
2022/04/30 03:25:49;;;;;;;6.57;3.87;;;12.60;1.00;;;;;;5034906;28;20459;-56
2022/04/30 03:28:16;;;;;;;7.90;4.57;;;12.50;1.00;;;;;;5060791;28;20737;-56
2022/04/30 03:30:43;;;;;;;5.90;4.43;;;12.60;1.00;;;;;;5086459;28;20474;-55
2022/04/30 03:33:12;;;;;;;9.23;4.73;;;12.50;1.00;;;;;;5075162;28;20486;-52
2022/04/30 03:35:39;;;;;;;12.30;6.20;;;12.50;1.00;;;;;;5075294;28;20450;-56
2022/04/30 03:38:07;;;;;;;11.23;5.40;;;12.50;1.00;;;;;;5076163;28;20465;-52
2022/04/30 03:40:34;;;;;;;10.40;6.67;;;12.40;1.00;;;;;;5076117;28;20896;-55
2022/04/30 03:43:01;;;;;;;9.87;5.57;;;12.40;1.00;;;;;;5076524;28;20901;-52
2022/04/30 03:45:28;;;;;;;13.43;5.97;;;12.40;1.00;;;;;;5075861;28;20455;-53
2022/04/30 03:47:55;;;;;;;7.57;5.63;;;12.40;1.00;;;;;;5075138;28;20458;-51
2022/04/30 03:50:23;;;;;;;10.07;5.20;;;12.40;1.00;;;;;;5075528;28;21025;-55
2022/04/30 03:52:50;;;;;;;11.23;7.03;;;12.40;1.00;;;;;;5075889;28;20529;-53
2022/04/30 03:55:17;;;;;;;9.40;7.70;;;12.40;1.00;;;;;;5076047;28;20754;-51
2022/04/30 03:57:44;;;;;;;13.07;6.17;;;12.30;1.00;;;;;;5075496;28;20450;-55
2022/04/30 04:00:12;;;;;;;10.70;6.60;;;12.30;1.00;;;;;;5075873;28;20958;-53
2022/04/30 04:02:41;;;;;;;11.73;7.00;;;12.20;1.00;;;;;;5076139;28;20462;-51
2022/04/30 04:05:10;;;;;;;13.10;8.37;;;12.30;1.00;;;;;;5076259;28;20453;-56
2022/04/30 04:07:39;;;;;;;9.70;5.90;;;12.30;1.00;;;;;;5076693;28;20972;-54
2022/04/30 04:10:06;;;;;;;12.80;6.33;;;12.20;1.00;;;;;;5075767;28;20481;-56
2022/04/30 04:12:33;;;;;;;14.53;7.30;;;12.10;11.30;;;;;;5075643;28;20557;-51
2022/04/30 04:17:44;;;;;;;13.93;7.63;;;12.10;17.10;;;;;;5088169;28;20565;-54
2022/04/30 04:20:13;;;;;;;13.80;7.70;;;12.10;16.10;;;;;;5095198;28;20940;-54
2022/04/30 04:22:42;;;;;;;15.73;9.70;;;12.20;13.70;;;;;;5094883;28;20461;-56
2022/04/30 04:27:55;;;;;;;13.00;7.30;;;12.10;27.20;;;;;;5073922;28;20425;-53
2022/04/30 04:30:22;;;;;;;12.13;8.50;;;12.00;30.60;;;;;;5073268;28;20776;-53
2022/04/30 04:32:49;;;;;;;13.70;9.97;;;12.10;31.10;;;;;;5074098;28;20481;-50
2022/04/30 04:35:16;;;;;;;12.70;8.07;;;12.10;34.40;;;;;;5074208;28;20442;-51
2022/04/30 04:37:45;;;;;;;12.27;7.67;;;12.00;47.10;;;;;;5074983;28;20458;-52
2022/04/30 04:40:14;;;;;;;11.93;7.27;;;12.00;49.20;;;;;;5075375;28;20449;-52
2022/04/30 04:42:42;;;;;;;17.80;7.70;;;12.10;60.50;;;;;;5076395;28;20769;-54
2022/04/30 04:45:10;;;;;;;12.70;7.97;;;12.00;59.70;;;;;;5075763;28;20554;-56
2022/04/30 04:47:39;;;;;;;10.83;7.50;;;11.90;90.70;;;;;;5075078;28;20549;-50
2022/04/30 04:50:08;;;;;;;15.97;9.03;;;11.90;93.50;;;;;;5076120;28;20485;-55
2022/04/30 04:52:35;;;;;;;10.10;6.67;;;12.00;95.70;;;;;;5075846;28;20454;-54
2022/04/30 04:55:04;;;;;;;15.70;9.73;;;12.00;76.00;;;;;;5075774;28;20893;-50
2022/04/30 04:57:31;;;;;;;11.37;7.87;;;12.00;77.50;;;;;;5075292;28;20459;-49
2022/04/30 04:59:58;;;;;;;12.60;8.73;;;12.00;95.20;;;;;;5074817;28;20447;-54
2022/04/30 05:02:25;;;;;;;13.37;8.20;;;11.90;99.90;;;;;;5074742;28;20459;-49
2022/04/30 05:04:52;;;;;;;14.10;9.60;;;11.80;99.90;;;;;;5074845;28;20885;-53
2022/04/30 05:07:19;;;;;;;10.20;7.20;;;11.90;99.90;;;;;;5074898;28;20525;-54
2022/04/30 05:09:46;;;;;;;14.83;8.67;;;11.80;99.90;;;;;;5074977;28;20478;-54
2022/04/30 05:12:14;;;;;;;15.20;8.27;;;11.80;99.90;;;;;;5075020;28;20465;-54
2022/04/30 05:14:41;;;;;;;13.90;9.33;;;11.80;99.90;;;;;;5075707;28;20893;-55
2022/04/30 05:17:08;;;;;;;11.47;7.57;;;11.90;99.90;;;;;;5075496;28;20482;-50
2022/04/30 05:19:35;;;;;;;15.73;8.27;;;11.90;99.90;;;;;;5075529;28;20912;-53
2022/04/30 05:22:02;;;;;;;12.57;8.63;;;12.00;99.00;;;;;;5075185;28;20584;-47
2022/04/30 05:24:29;;;;;;;12.80;7.73;;;12.00;99.90;;;;;;5075035;28;20446;-52
2022/04/30 05:26:56;;;;;;;11.70;6.97;;;12.00;99.90;;;;;;5074670;28;20461;-48
2022/04/30 05:29:24;;;;;;;12.20;7.83;;;12.00;99.90;;;;;;5075126;28;20450;-47
2022/04/30 05:31:51;;;;;;;13.60;8.53;;;12.00;99.90;;;;;;5075262;28;20549;-45
2022/04/30 05:34:18;;;;;;;10.07;7.23;;;12.00;99.40;;;;;;5074852;28;20439;-47
2022/04/30 05:36:45;;;;;;;12.23;7.13;;;11.90;99.90;;;;;;5075641;28;20545;-54
2022/04/30 05:39:12;;;;;;;12.57;8.27;;;11.80;99.90;;;;;;5084516;28;20450;-53
2022/04/30 05:41:39;;;;;;;12.57;7.97;;;11.90;99.90;;;;;;5095717;28;20460;-51
2022/04/30 05:44:06;;;;;;;12.57;8.93;;;11.90;99.90;;;;;;5095910;28;20806;-49
2022/04/30 05:46:34;;;;;;;12.27;7.57;;;11.90;99.90;;;;;;5090756;28;20442;-54
2022/04/30 05:49:01;;;;;;;12.90;8.07;;;11.90;99.90;;;;;;5089991;28;20533;-50
2022/04/30 05:51:27;;;;;;;12.17;7.50;;;12.00;99.90;;;;;;5095520;28;20479;-49
2022/04/30 05:53:54;;;;;;;12.33;7.47;;;11.90;99.90;;;;;;5095796;28;20821;-52
2022/04/30 05:56:21;;;;;;;10.97;6.53;;;12.00;99.90;;;;;;5084861;28;20454;-47
2022/04/30 05:58:48;;;;;;;13.43;7.00;;;12.00;99.90;;;;;;5078936;28;20756;-51
2022/04/30 06:01:15;;;;;;;7.37;5.80;;;12.10;99.90;;;;;;5078453;28;20477;-49
2022/04/30 06:03:43;;;;;;;11.77;8.23;;;12.10;99.90;;;;;;5078111;28;20482;-47
2022/04/30 06:06:11;;;;;;;10.57;7.13;;;12.10;99.90;;;;;;5075981;28;20858;-52
2022/04/30 06:08:38;;;;;;;14.00;7.70;;;12.20;98.60;;;;;;5076790;28;20481;-52
2022/04/30 06:11:04;;;;;;;9.27;5.13;;;12.20;99.90;;;;;;5078089;28;20475;-51
2022/04/30 06:13:32;;;;;;;12.27;7.30;;;12.00;99.90;;;;;;5076926;28;20454;-50
2022/04/30 06:15:58;;;;;;;12.63;6.60;;;12.00;99.90;;;;;;5076185;28;21136;-52
2022/04/30 06:18:26;;;;;;;9.80;5.93;;;12.10;99.90;;;;;;5072388;28;20580;-49
2022/04/30 06:20:55;;;;;;;10.30;7.00;;;12.20;99.90;;;;;;5077354;28;20446;-51
2022/04/30 06:23:22;;;;;;;10.10;7.80;;;12.10;99.90;;;;;;5075135;28;20453;-48
2022/04/30 06:25:49;;;;;;;12.83;7.40;;;12.20;99.90;;;;;;5076265;28;20434;-50
2022/04/30 06:28:17;;;;;;;10.83;7.77;;;12.30;99.90;;;;;;5076221;28;20454;-49
2022/04/30 06:30:44;;;;;;;11.90;7.47;;;12.30;99.90;;;;;;5077446;28;20489;-50
2022/04/30 06:33:11;;;;;;;10.57;6.60;;;12.20;99.90;;;;;;5076588;28;20450;-49
2022/04/30 06:35:38;;;;;;;12.50;8.03;;;12.30;99.90;;;;;;5075056;28;20448;-50
2022/04/30 06:38:07;;;;;;;9.27;5.90;;;12.30;99.90;;;;;;5080571;28;20487;-51
2022/04/30 06:40:34;;;;;;;9.33;4.90;;;12.40;99.90;;;;;;5096456;28;20888;-47
2022/04/30 06:43:02;;;;;;;11.13;7.53;;;12.50;99.90;;;;;;5096455;28;20453;-52
2022/04/30 06:45:30;;;;;;;12.30;7.80;;;12.70;97.10;;;;;;5097356;28;20450;-51
2022/04/30 06:47:57;;;;;;;13.53;8.50;;;12.60;93.40;;;;;;5097886;28;20472;-51
2022/04/30 06:50:24;;;;;;;10.07;6.53;;;12.40;95.90;;;;;;5090323;28;20478;-49
2022/04/30 06:58:23;;;;;;;13.43;7.20;;;12.20;99.90;;;;;;5075683;28;20429;-51
2022/04/30 07:03:37;;;;;;;12.20;8.88;;;12.10;99.90;;;;;;5075248;28;20487;-52
2022/04/30 07:06:04;;;;;;;12.40;9.17;;;12.30;99.90;;;;;;5076394;28;20701;-47
2022/04/30 07:08:35;;;;;;;8.07;5.50;;;12.40;99.90;;;;;;5075644;28;20516;-50
2022/04/30 07:11:03;;;;;;;14.20;8.93;;;12.70;99.90;;;;;;5076478;28;20926;-48
2022/04/30 07:13:33;;;;;;;8.40;4.50;;;12.70;99.90;;;;;;5075498;28;20454;-48
2022/04/30 07:16:00;;;;;;;8.00;5.97;;;12.80;99.90;;;;;;5075244;28;20446;-50
2022/04/30 07:18:27;;;;;;;5.30;4.23;;;13.10;44.00;;;;;;5085708;28;20963;-51
2022/04/30 07:20:55;;;;;;;11.53;5.80;;;13.30;28.30;;;;;;5096389;28;20499;-52
2022/04/30 07:23:22;;;;;;;7.93;5.27;;;13.40;24.60;;;;;;5097287;28;20941;-49
2022/04/30 07:25:49;;;;;;;6.10;5.10;;;13.30;4.50;;;;;;5096203;28;20537;-53
2022/04/30 07:28:22;;;;;;;9.43;5.00;;;13.20;1.00;;;;;;5078334;28;20458;-54
2022/04/30 07:30:55;;;;;;;10.10;5.60;;;13.30;3.80;;;;;;5076415;28;20482;-51
2022/04/30 07:33:21;;;;;;;8.00;6.47;;;13.40;1.00;;;;;;5088634;28;20783;-52
2022/04/30 07:35:49;;;;;;;6.00;4.10;;;13.30;1.00;;;;;;5089799;28;20223;-49
2022/04/30 07:38:16;;;;;;;11.03;5.87;;;13.50;1.00;;;;;;5091099;28;20462;-53
2022/04/30 07:40:45;;;;;;;7.00;4.27;;;13.30;1.00;;;;;;5095847;28;20442;-51
2022/04/30 07:43:12;;;;;;;11.37;5.70;;;13.10;6.40;;;;;;5096001;28;20736;-46
2022/04/30 07:45:40;;;;;;;10.27;5.07;;;13.00;23.50;;;;;;5083594;28;20542;-49
2022/04/30 07:48:08;;;;;;;9.67;6.13;;;13.10;11.40;;;;;;5083540;28;20441;-48
2022/04/30 07:50:36;;;;;;;8.20;5.43;;;13.10;13.80;;;;;;5094130;28;20485;-48
2022/04/30 07:53:03;;;;;;;7.37;5.27;;;13.30;15.20;;;;;;5094700;28;20460;-47
2022/04/30 07:55:30;;;;;;;9.40;5.30;;;13.30;1.00;;;;;;5093144;28;20452;-51
2022/04/30 07:57:57;;;;;;;7.90;5.17;;;13.30;7.70;;;;;;5094243;28;20453;-46
2022/04/30 08:00:24;;;;;;;7.93;5.13;;;13.10;24.70;;;;;;5094886;28;20465;-46
2022/04/30 08:02:58;;;;;;;7.30;5.20;;;13.20;6.40;;;;;;5090770;28;20458;-46
2022/04/30 08:05:25;;;;;;;3.90;2.57;;;13.30;14.30;;;;;;5075702;28;20534;-48
2022/04/30 08:07:52;;;;;;;8.27;4.23;;;13.50;1.00;;;;;;5076120;28;20962;-47
2022/04/30 08:10:19;;;;;;;6.03;4.47;;;13.50;1.00;;;;;;5075277;28;20469;-47
2022/04/30 08:12:46;;;;;;;6.63;5.30;;;13.30;1.00;;;;;;5078971;28;20450;-50
2022/04/30 08:15:13;;;;;;;5.97;4.07;;;13.00;37.80;;;;;;5074337;28;20546;-48
2022/04/30 08:17:40;;;;;;;6.57;5.30;;;12.90;57.20;;;;;;5074293;28;20474;-45
2022/04/30 08:20:09;;;;;;;5.67;2.40;;;13.10;45.80;;;;;;5072269;28;21139;-49
2022/04/30 08:22:36;;;;;;;4.60;2.40;;;13.20;16.20;;;;;;5080603;28;20924;-51
2022/04/30 08:25:04;;;;;;;4.57;2.93;;;13.40;10.10;;;;;;5093464;28;20446;-49
2022/04/30 08:27:31;;;;;;;4.53;4.13;;;13.30;1.00;;;;;;5094340;28;20445;-50
2022/04/30 08:29:58;;;;;;;3.80;2.80;;;13.20;1.00;;;;;;5090673;28;20542;-50
2022/04/30 08:32:25;;;;;;;5.50;3.40;;;13.20;13.30;;;;;;5075117;28;20482;-50
2022/04/30 08:34:52;;;;;;;4.80;3.27;;;13.10;1.00;;;;;;5074687;28;20450;-49
2022/04/30 08:37:20;;;;;;;4.60;2.70;;;13.10;1.50;;;;;;5075198;28;20464;-51
2022/04/30 08:39:48;;;;;;;5.93;4.00;;;13.20;12.60;;;;;;5074857;28;20486;-50
2022/04/30 08:42:17;;;;;;;4.70;2.57;;;13.10;15.00;;;;;;5094434;28;20454;-49
2022/04/30 08:44:49;;;;;;;4.80;3.10;;;13.10;19.80;;;;;;5095687;28;20892;-47
2022/04/30 08:47:16;;;;;;;7.27;4.50;;;13.00;29.60;;;;;;5095433;28;20457;-50
2022/04/30 08:49:46;;;;;;;5.83;3.47;;;12.50;49.20;;;;;;5095096;28;20532;-50
2022/04/30 08:52:15;;;;;;;5.40;3.37;;;12.40;99.90;;;;;;5094001;28;20481;-48
2022/04/30 08:54:43;;;;;;;3.90;2.87;;;12.50;90.00;;;;;;5093138;28;20458;-47
2022/04/30 08:57:10;;;;;;;6.43;3.87;;;12.40;85.50;;;;;;5092390;28;20475;-48
2022/04/30 08:59:37;;;;;;;4.97;3.47;;;12.50;77.00;;;;;;5092860;28;20498;-49
2022/04/30 09:02:10;;;;;;;7.63;4.10;;;12.50;60.30;;;;;;5094338;28;20729;-47
2022/04/30 09:04:45;;;;;;;4.70;2.80;;;12.50;82.10;;;;;;5093048;28;20456;-50
2022/04/30 09:07:17;;;;;;;3.33;2.90;;;12.60;89.10;;;;;;5083011;28;20480;-51
2022/04/30 09:09:45;;;;;;;2.73;2.17;;;12.70;64.50;;;;;;5091529;28;20442;-46
2022/04/30 09:12:14;;;;;;;4.87;3.70;;;12.80;50.90;;;;;;5086817;28;20513;-49
2022/04/30 09:14:44;;;;;;;5.53;3.30;;;12.70;45.20;;;;;;5093524;28;20876;-48
2022/04/30 09:17:12;;;;;;;5.13;2.97;;;12.60;59.60;;;;;;5075216;28;20581;-49
2022/04/30 09:19:50;;;;;;;4.50;3.10;;;12.50;82.80;;;;;;5074324;28;20455;-47
2022/04/30 09:22:28;;;;;;;4.03;2.67;;;12.30;48.80;;;;;;5091992;28;20496;-49
2022/04/30 09:25:03;;;;;;;3.70;2.23;;;12.30;96.60;;;;;;5080801;28;20439;-49
2022/04/30 09:27:31;;;;;;;5.80;3.30;;;12.30;99.90;;;;;;5080882;28;20552;-48
2022/04/30 09:30:00;;;;;;;4.30;2.17;;;12.30;99.90;;;;;;5093073;28;20452;-47
2022/04/30 09:32:27;;;;;;;5.03;3.40;;;12.50;99.90;;;;;;5094656;28;20567;-48
2022/04/30 09:37:42;;;;;;;8.40;3.57;;;12.50;91.80;;;;;;5089749;28;20523;-54
2022/04/30 09:40:20;;;;;;;7.70;3.23;;;12.70;90.10;;;;;;5094472;28;20520;-51
2022/04/30 09:42:48;;;;;;;3.60;1.73;;;12.60;71.70;;;;;;5097294;28;20448;-53
2022/04/30 09:45:26;;;;;;;4.27;2.10;;;12.60;95.70;;;;;;5083126;28;20450;-51
2022/04/30 09:47:54;;;;;;;4.07;2.97;;;12.80;72.50;;;;;;5084303;28;20852;-52
2022/04/30 09:55:55;;;;;;;2.93;1.73;;;12.80;73.00;;;;;;5091775;28;20441;-50
2022/04/30 09:58:24;;;;;;;3.17;1.83;;;12.70;21.80;;;;;;5089585;28;20452;-48
2022/04/30 10:00:56;;;;;;;2.60;1.83;;;12.80;64.00;;;;;;5092766;28;20445;-49
2022/04/30 10:03:27;;;;;;;3.17;1.70;;;12.90;32.80;;;;;;5092567;28;20487;-48
2022/04/30 10:06:02;;;;;;;2.93;1.93;;;13.10;39.40;;;;;;5094691;28;20464;-48
2022/04/30 10:08:31;;;;;;;2.80;1.40;;;13.40;35.80;;;;;;5094052;28;20451;-50
2022/04/30 10:11:19;;;;;;;3.50;1.40;;;13.50;1.00;;;;;;5091770;28;20549;-50
2022/04/30 10:13:53;;;;;;;2.73;1.60;;;13.50;1.00;;;;;;5088330;28;20466;-46
2022/04/30 10:16:25;;;;;;;2.63;1.83;;;13.60;1.00;;;;;;5093523;28;20888;-48
2022/04/30 10:19:15;;;;;;;2.47;1.73;;;13.50;1.00;;;;;;5077551;28;20488;-48
2022/04/30 10:21:42;;;;;;;3.23;1.80;;;13.50;17.40;;;;;;5087509;28;20747;-48
2022/04/30 10:24:12;;;;;;;2.70;1.90;;;13.40;28.60;;;;;;5088925;28;20454;-46
2022/04/30 10:27:00;;;;;;;3.60;1.90;;;13.50;1.00;;;;;;5094447;28;20468;-48
2022/04/30 10:29:26;;;;;;;2.80;1.40;;;13.50;1.00;;;;;;5092216;28;21023;-51
2022/04/30 10:31:53;;;;;;;3.90;2.13;;;13.80;5.30;;;;;;5090914;28;20944;-47
2022/04/30 10:34:30;;;;;;;2.77;1.93;;;14.10;1.00;;;;;;5089432;28;20614;-49
2022/04/30 10:37:01;;;;;;;3.67;2.00;;;14.20;1.00;;;;;;5088110;28;20457;-51
2022/04/30 10:39:31;;;;;;;3.17;1.80;;;14.40;1.00;;;;;;5087767;28;21150;-47
2022/04/30 10:41:59;;;;;;;2.20;1.50;;;14.40;1.00;;;;;;5091995;28;20568;-50
2022/04/30 10:44:32;;;;;;;2.60;1.53;;;14.30;1.00;;;;;;5090613;28;20457;-52
2022/04/30 10:47:09;;;;;;;2.90;1.60;;;14.50;1.00;;;;;;5091940;28;20484;-49
2022/04/30 10:49:36;;;;;;;4.27;1.73;;;14.70;1.00;;;;;;5091285;28;20460;-45
2022/04/30 10:52:04;;;;;;;3.10;1.40;;;14.80;1.00;;;;;;5093771;28;20522;-52
2022/04/30 10:54:31;;;;;;;1.63;1.20;;;15.00;1.00;;;;;;5090029;28;20433;-49
2022/04/30 10:57:01;;;;;;;4.17;1.20;;;14.70;1.00;;;;;;5091607;28;20456;-52
2022/04/30 10:59:28;;;;;;;2.17;1.10;;;14.60;1.00;;;;;;5087021;28;20470;-51
2022/04/30 11:01:55;;;;;;;2.33;1.20;;;14.40;1.00;;;;;;5086309;28;20932;-48
2022/04/30 11:04:22;;;;;;;1.67;1.03;;;14.40;1.00;;;;;;5092556;28;20946;-47
2022/04/30 11:06:51;;;;;;;1.80;1.07;;;14.40;1.00;;;;;;5092609;28;20459;-45
2022/04/30 11:09:19;;;;;;;1.20;0.90;;;14.20;1.00;;;;;;5089413;28;20774;-48
2022/04/30 11:11:48;;;;;;;2.40;1.10;;;13.90;1.00;;;;;;5090703;28;20984;-49
2022/04/30 11:14:19;;;;;;;1.80;0.80;;;13.90;1.00;;;;;;5091041;28;20462;-48
2022/04/30 11:16:49;;;;;;;1.00;0.80;;;14.00;1.00;;;;;;5087949;28;20560;-47
2022/04/30 11:19:19;;;;;;;1.10;0.67;;;14.00;1.00;;;;;;5084281;28;20458;-45
2022/04/30 11:21:50;;;;;;;2.77;0.90;;;14.10;1.00;;;;;;5091088;28;20885;-49
2022/04/30 11:24:24;;;;;;;1.50;0.77;;;14.30;1.00;;;;;;5090124;28;20472;-49
2022/04/30 11:26:55;;;;;;;1.00;0.70;;;14.60;1.00;;;;;;5091634;28;20757;-47
2022/04/30 11:29:23;;;;;;;3.67;0.80;;;14.80;1.00;;;;;;5089834;28;20464;-46
2022/04/30 11:31:52;;;;;;;1.10;0.70;;;14.90;99.90;;;;;;5089913;28;20485;-49
2022/04/30 11:34:19;;;;;;;1.67;0.90;;;14.80;99.90;;;;;;5090619;28;20453;-50
2022/04/30 11:36:47;;;;;;;1.30;0.90;;;15.00;1.00;;;;;;5092849;28;20441;-47
2022/04/30 11:39:15;;;;;;;1.20;0.80;;;14.90;99.90;;;;;;5093750;28;20449;-49
2022/04/30 11:41:44;;;;;;;1.57;0.80;;;14.90;1.00;;;;;;5089454;28;20972;-51
2022/04/30 11:44:12;;;;;;;1.30;0.90;;;15.00;1.00;;;;;;5087277;28;20845;-50
2022/04/30 11:46:43;;;;;;;3.00;0.90;;;15.00;99.90;;;;;;5091353;28;20472;-50
2022/04/30 11:49:10;;;;;;;0.80;0.70;;;15.00;1.00;;;;;;5086276;28;20460;-47
2022/04/30 11:51:38;;;;;;;1.00;0.80;;;15.20;1.00;;;;;;5086434;28;20487;-47
2022/04/30 11:54:09;;;;;;;1.17;0.90;;;15.20;1.00;;;;;;5080936;28;20534;-47
2022/04/30 11:56:37;;;;;;;1.30;0.80;;;15.10;1.00;;;;;;5086101;28;20523;-47
2022/04/30 11:59:04;;;;;;;1.00;0.80;;;14.90;1.00;;;;;;5085580;28;20545;-46
2022/04/30 12:01:33;;;;;;;1.20;0.90;;;14.70;1.00;;;;;;5085526;28;20458;-47
2022/04/30 12:04:04;;;;;;;1.30;0.90;;;14.60;99.90;;;;;;5087981;28;20461;-51
2022/04/30 12:06:33;;;;;;;1.50;1.10;;;14.80;99.90;;;;;;5088227;28;20557;-46
2022/04/30 12:09:01;;;;;;;1.90;0.90;;;14.80;1.00;;;;;;5085131;28;20518;-49
2022/04/30 12:11:29;;;;;;;1.20;0.90;;;14.90;99.90;;;;;;5087505;28;20496;-52
2022/04/30 12:14:01;;;;;;;1.10;0.90;;;15.40;1.00;;;;;;5083232;28;20465;-49
2022/04/30 12:16:43;;;;;;;2.37;1.40;;;15.50;1.00;;;;;;5089352;28;20560;-50
2022/04/30 12:25:00;;;;;;;1.20;0.87;;;15.10;1.00;;;;;;5086987;28;20440;-51
2022/04/30 12:27:28;;;;;;;0.93;0.70;;;15.60;1.00;;;;;;5084464;28;20544;-54
2022/04/30 12:30:15;;;;;;;1.30;0.80;;;16.00;1.00;;;;;;5087264;28;20558;-47
2022/04/30 12:32:52;;;;;;;1.40;0.90;;;16.20;1.00;;;;;;5086827;28;20481;-53
2022/04/30 12:35:26;;;;;;;1.50;1.20;;;16.20;99.90;;;;;;5084998;28;20496;-52
2022/04/30 12:38:07;;;;;;;1.10;0.80;;;15.80;1.00;;;;;;5085871;28;20452;-48
2022/04/30 12:40:34;;;;;;;1.10;0.90;;;15.40;1.00;;;;;;5088221;28;20530;-49
2022/04/30 12:43:02;;;;;;;1.10;0.70;;;14.80;99.90;;;;;;5090966;28;20707;-50
2022/04/30 12:45:29;;;;;;;4.10;1.37;;;14.70;1.00;;;;;;5094154;28;20783;-51
2022/04/30 12:47:57;;;;;;;1.20;0.90;;;14.70;99.90;;;;;;5092101;28;20455;-52
2022/04/30 12:50:26;;;;;;;1.07;0.80;;;14.50;99.90;;;;;;5090119;28;20453;-54
2022/04/30 12:52:52;;;;;;;1.23;0.80;;;14.70;1.00;;;;;;5079235;28;20479;-51
2022/04/30 12:55:20;;;;;;;1.20;0.80;;;14.80;95.30;;;;;;5085588;28;20457;-58
2022/04/30 12:57:47;;;;;;;1.00;0.80;;;15.10;99.90;;;;;;5092351;28;20457;-50
2022/04/30 13:00:15;;;;;;;1.30;0.70;;;15.30;1.00;;;;;;5091228;28;20457;-49
2022/04/30 13:02:43;;;;;;;1.37;0.67;;;15.40;99.90;;;;;;5091214;28;20522;-48
2022/04/30 13:05:11;;;;;;;1.00;0.70;;;15.20;1.00;;;;;;5091833;28;20460;-49
2022/04/30 13:07:40;;;;;;;1.50;0.80;;;14.90;46.40;;;;;;5092306;28;20444;-47
2022/04/30 13:15:40;;;;;;;1.33;0.90;;;15.00;99.90;;;;;;5094130;28;20436;-51
2022/04/30 13:18:07;;;;;;;1.60;1.17;;;15.00;1.00;;;;;;5095141;28;20472;-52
2022/04/30 13:20:38;;;;;;;2.00;1.60;;;14.90;1.00;;;;;;5096420;28;20873;-48
2022/04/30 13:23:06;;;;;;;4.03;2.93;;;14.80;1.00;;;;;;5094789;28;20465;-50
2022/04/30 13:25:33;;;;;;;2.20;1.43;;;14.70;99.90;;;;;;5096556;28;20488;-49
2022/04/30 13:28:00;;;;;;;2.40;1.30;;;14.60;1.00;;;;;;5093537;28;20462;-52
2022/04/30 13:30:29;;;;;;;3.67;1.20;;;14.60;99.90;;;;;;5091997;28;20468;-53
2022/04/30 13:32:56;;;;;;;2.27;1.30;;;14.80;1.00;;;;;;5092700;28;20484;-54
2022/04/30 13:35:23;;;;;;;2.57;1.63;;;15.00;6.40;;;;;;5095337;28;20754;-48
2022/04/30 13:37:51;;;;;;;2.80;1.57;;;15.00;99.90;;;;;;5092746;28;20546;-48
2022/04/30 13:40:20;;;;;;;1.83;1.70;;;15.20;1.00;;;;;;5093762;28;20472;-53
2022/04/30 13:42:47;;;;;;;3.27;1.93;;;15.00;99.90;;;;;;5096425;28;20812;-48